sensor_id;sensor_type;location;lat;lon;timestamp;pressure;altitude;pressure_sealevel;temperature;humidity
49367;BME280;35245;52.026;8.540;2023-02-12T00:00:35;51044.41;;;-145.42;99.30
49367;BME280;35245;52.026;8.540;2023-02-12T00:03:03;51066.22;;;-145.42;98.20
49367;BME280;35245;52.026;8.540;2023-02-12T00:05:31;51038.47;;;-145.42;98.29
49367;BME280;35245;52.026;8.540;2023-02-12T00:08:00;51040.44;;;-145.42;98.99
49367;BME280;35245;52.026;8.540;2023-02-12T00:10:27;51044.41;;;-145.42;99.85
49367;BME280;35245;52.026;8.540;2023-02-12T00:12:54;51050.34;;;-145.42;99.38
49367;BME280;35245;52.026;8.540;2023-02-12T00:15:22;51040.44;;;-145.42;98.98
49367;BME280;35245;52.026;8.540;2023-02-12T00:17:49;51028.53;;;-145.42;100.00
49367;BME280;35245;52.026;8.540;2023-02-12T00:20:17;51054.31;;;-145.42;100.00
49367;BME280;35245;52.026;8.540;2023-02-12T00:22:45;51054.31;;;-145.42;99.21
49367;BME280;35245;52.026;8.540;2023-02-12T00:25:14;51030.53;;;-145.42;100.00
49367;BME280;35245;52.026;8.540;2023-02-12T00:27:42;51038.47;;;-145.42;100.00
49367;BME280;35245;52.026;8.540;2023-02-12T00:30:10;51038.47;;;-145.42;100.00
49367;BME280;35245;52.026;8.540;2023-02-12T00:32:38;51030.53;;;-145.42;99.91
49367;BME280;35245;52.026;8.540;2023-02-12T00:35:06;51026.56;;;-145.42;100.00
49367;BME280;35245;52.026;8.540;2023-02-12T00:37:33;51034.50;;;-145.42;100.00
49367;BME280;35245;52.026;8.540;2023-02-12T00:40:00;51058.28;;;-145.42;99.73
49367;BME280;35245;52.026;8.540;2023-02-12T00:42:29;51052.34;;;-145.42;99.93
49367;BME280;35245;52.026;8.540;2023-02-12T00:44:56;51026.56;;;-145.42;99.94
49367;BME280;35245;52.026;8.540;2023-02-12T00:47:24;51040.44;;;-145.42;100.00
49367;BME280;35245;52.026;8.540;2023-02-12T00:49:51;51018.63;;;-145.42;100.00
49367;BME280;35245;52.026;8.540;2023-02-12T00:52:19;51040.44;;;-145.42;100.00
49367;BME280;35245;52.026;8.540;2023-02-12T00:54:46;51054.31;;;-145.42;99.77
49367;BME280;35245;52.026;8.540;2023-02-12T00:57:13;51076.13;;;-145.42;98.88
49367;BME280;35245;52.026;8.540;2023-02-12T00:59:42;51028.53;;;-145.42;98.29
49367;BME280;35245;52.026;8.540;2023-02-12T01:02:09;51034.50;;;-145.42;97.70
49367;BME280;35245;52.026;8.540;2023-02-12T01:04:36;51091.97;;;-145.42;97.25
49367;BME280;35245;52.026;8.540;2023-02-12T01:07:04;51056.28;;;-145.42;97.92
49367;BME280;35245;52.026;8.540;2023-02-12T01:09:32;51080.09;;;-145.42;97.48
49367;BME280;35245;52.026;8.540;2023-02-12T01:11:59;51052.34;;;-145.42;97.58
49367;BME280;35245;52.026;8.540;2023-02-12T01:14:26;51040.44;;;-145.42;99.00
49367;BME280;35245;52.026;8.540;2023-02-12T01:16:55;51044.41;;;-145.42;98.42
49367;BME280;35245;52.026;8.540;2023-02-12T01:19:22;51050.34;;;-145.42;98.13
49367;BME280;35245;52.026;8.540;2023-02-12T01:21:50;51056.28;;;-145.42;98.15
49367;BME280;35245;52.026;8.540;2023-02-12T01:24:17;51042.41;;;-145.42;98.29
49367;BME280;35245;52.026;8.540;2023-02-12T01:26:44;51046.38;;;-145.42;97.41
49367;BME280;35245;52.026;8.540;2023-02-12T01:29:12;51058.28;;;-145.42;98.63
49367;BME280;35245;52.026;8.540;2023-02-12T01:31:39;51044.41;;;-145.42;97.68
49367;BME280;35245;52.026;8.540;2023-02-12T01:34:10;51054.31;;;-145.42;97.77
49367;BME280;35245;52.026;8.540;2023-02-12T01:36:38;51048.38;;;-145.42;97.27
49367;BME280;35245;52.026;8.540;2023-02-12T01:39:05;51048.38;;;-145.42;98.12
49367;BME280;35245;52.026;8.540;2023-02-12T01:41:39;51044.41;;;-145.42;97.20
49367;BME280;35245;52.026;8.540;2023-02-12T01:44:15;51042.41;;;-145.42;97.03
49367;BME280;35245;52.026;8.540;2023-02-12T01:46:45;51046.38;;;-145.42;97.18
49367;BME280;35245;52.026;8.540;2023-02-12T01:49:18;51032.50;;;-145.42;98.63
49367;BME280;35245;52.026;8.540;2023-02-12T01:51:48;51050.34;;;-145.42;100.00
49367;BME280;35245;52.026;8.540;2023-02-12T01:54:19;51040.44;;;-145.42;100.00
49367;BME280;35245;52.026;8.540;2023-02-12T01:56:50;51034.50;;;-145.42;98.96
49367;BME280;35245;52.026;8.540;2023-02-12T01:59:19;51026.56;;;-145.42;99.11
49367;BME280;35245;52.026;8.540;2023-02-12T02:01:47;51040.44;;;-145.42;100.00
49367;BME280;35245;52.026;8.540;2023-02-12T02:04:21;51046.38;;;-145.42;99.89
49367;BME280;35245;52.026;8.540;2023-02-12T02:06:55;51022.59;;;-145.42;98.99
49367;BME280;35245;52.026;8.540;2023-02-12T02:09:23;51018.63;;;-145.42;98.34
49367;BME280;35245;52.026;8.540;2023-02-12T02:11:51;51038.47;;;-145.42;98.75
49367;BME280;35245;52.026;8.540;2023-02-12T02:14:36;51016.66;;;-145.42;98.37
49367;BME280;35245;52.026;8.540;2023-02-12T02:17:30;51026.56;;;-145.42;99.64
49367;BME280;35245;52.026;8.540;2023-02-12T02:26:49;51042.41;;;-145.42;99.22
49367;BME280;35245;52.026;8.540;2023-02-12T02:29:40;51026.56;;;-145.42;98.94
49367;BME280;35245;52.026;8.540;2023-02-12T02:32:17;51050.34;;;-145.42;98.39
49367;BME280;35245;52.026;8.540;2023-02-12T02:34:54;51034.50;;;-145.42;98.02
49367;BME280;35245;52.026;8.540;2023-02-12T02:37:27;51038.47;;;-145.42;100.00
49367;BME280;35245;52.026;8.540;2023-02-12T02:40:01;51024.59;;;-145.42;99.71
49367;BME280;35245;52.026;8.540;2023-02-12T02:42:39;51052.34;;;-145.42;98.30
49367;BME280;35245;52.026;8.540;2023-02-12T02:45:14;51038.47;;;-145.42;98.27
49367;BME280;35245;52.026;8.540;2023-02-12T02:47:46;51042.41;;;-145.42;98.50
49367;BME280;35245;52.026;8.540;2023-02-12T02:50:16;51050.34;;;-145.42;99.45
49367;BME280;35245;52.026;8.540;2023-02-12T02:52:49;51044.41;;;-145.42;98.78
49367;BME280;35245;52.026;8.540;2023-02-12T02:55:21;51038.47;;;-145.42;99.47
49367;BME280;35245;52.026;8.540;2023-02-12T02:57:53;51056.28;;;-145.42;98.39
49367;BME280;35245;52.026;8.540;2023-02-12T03:00:28;51046.38;;;-145.42;98.12
49367;BME280;35245;52.026;8.540;2023-02-12T03:03:07;51028.53;;;-145.42;98.38
49367;BME280;35245;52.026;8.540;2023-02-12T03:05:40;51050.34;;;-145.42;98.41
49367;BME280;35245;52.026;8.540;2023-02-12T03:08:14;51046.38;;;-145.42;97.68
49367;BME280;35245;52.026;8.540;2023-02-12T03:10:49;51064.22;;;-145.42;97.65
49367;BME280;35245;52.026;8.540;2023-02-12T03:13:20;51032.50;;;-145.42;97.61
49367;BME280;35245;52.026;8.540;2023-02-12T03:15:51;51040.44;;;-145.42;97.85
49367;BME280;35245;52.026;8.540;2023-02-12T03:18:24;51028.53;;;-145.42;99.90
49367;BME280;35245;52.026;8.540;2023-02-12T03:20:59;51048.38;;;-145.42;98.94
49367;BME280;35245;52.026;8.540;2023-02-12T03:23:31;51056.28;;;-145.42;98.72
49367;BME280;35245;52.026;8.540;2023-02-12T03:26:06;51028.53;;;-145.42;98.94
49367;BME280;35245;52.026;8.540;2023-02-12T03:28:37;51038.47;;;-145.42;99.43
49367;BME280;35245;52.026;8.540;2023-02-12T03:31:11;51056.28;;;-145.42;99.47
49367;BME280;35245;52.026;8.540;2023-02-12T03:33:52;51058.28;;;-145.42;99.37
49367;BME280;35245;52.026;8.540;2023-02-12T03:36:32;51086.03;;;-145.42;98.93
49367;BME280;35245;52.026;8.540;2023-02-12T03:39:09;51048.38;;;-145.42;99.30
49367;BME280;35245;52.026;8.540;2023-02-12T03:41:43;51022.59;;;-145.42;99.45
49367;BME280;35245;52.026;8.540;2023-02-12T03:44:21;51042.41;;;-145.42;99.37
49367;BME280;35245;52.026;8.540;2023-02-12T03:46:59;51048.38;;;-145.42;99.69
49367;BME280;35245;52.026;8.540;2023-02-12T03:49:33;51028.53;;;-145.42;99.75
49367;BME280;35245;52.026;8.540;2023-02-12T03:52:03;51040.44;;;-145.42;99.07
49367;BME280;35245;52.026;8.540;2023-02-12T03:54:31;51042.41;;;-145.42;98.55
49367;BME280;35245;52.026;8.540;2023-02-12T03:57:02;51032.50;;;-145.42;98.13
49367;BME280;35245;52.026;8.540;2023-02-12T03:59:34;51042.41;;;-145.42;98.14
49367;BME280;35245;52.026;8.540;2023-02-12T04:02:04;51074.13;;;-145.42;98.49
49367;BME280;35245;52.026;8.540;2023-02-12T04:04:33;51038.47;;;-145.42;98.61
49367;BME280;35245;52.026;8.540;2023-02-12T04:07:01;51074.13;;;-145.42;98.95
49367;BME280;35245;52.026;8.540;2023-02-12T04:09:30;51042.41;;;-145.42;99.40
49367;BME280;35245;52.026;8.540;2023-02-12T04:14:54;51062.25;;;-145.42;98.94
49367;BME280;35245;52.026;8.540;2023-02-12T04:17:32;51052.34;;;-145.42;99.12
49367;BME280;35245;52.026;8.540;2023-02-12T04:20:13;51034.50;;;-145.42;99.78
49367;BME280;35245;52.026;8.540;2023-02-12T04:22:57;51040.44;;;-145.42;99.14
49367;BME280;35245;52.026;8.540;2023-02-12T04:25:42;51040.44;;;-145.42;99.78
49367;BME280;35245;52.026;8.540;2023-02-12T04:28:23;51042.41;;;-145.42;99.71
49367;BME280;35245;52.026;8.540;2023-02-12T04:30:58;51048.38;;;-145.42;99.88
49367;BME280;35245;52.026;8.540;2023-02-12T04:33:34;51042.41;;;-145.42;99.67
49367;BME280;35245;52.026;8.540;2023-02-12T04:36:12;51068.19;;;-145.42;99.55
49367;BME280;35245;52.026;8.540;2023-02-12T04:38:45;51038.47;;;-145.42;99.11
49367;BME280;35245;52.026;8.540;2023-02-12T04:41:14;51022.59;;;-145.42;98.55
49367;BME280;35245;52.026;8.540;2023-02-12T04:43:41;51036.47;;;-145.42;98.75
49367;BME280;35245;52.026;8.540;2023-02-12T04:46:08;51044.41;;;-145.42;98.77
49367;BME280;35245;52.026;8.540;2023-02-12T04:48:42;51046.38;;;-145.42;98.95
49367;BME280;35245;52.026;8.540;2023-02-12T04:51:14;51060.25;;;-145.42;98.28
49367;BME280;35245;52.026;8.540;2023-02-12T04:53:41;51046.38;;;-145.42;97.99
49367;BME280;35245;52.026;8.540;2023-02-12T04:56:10;51026.56;;;-145.42;100.00
49367;BME280;35245;52.026;8.540;2023-02-12T04:58:37;51040.44;;;-145.42;100.00
49367;BME280;35245;52.026;8.540;2023-02-12T05:01:05;51018.63;;;-145.42;100.00
49367;BME280;35245;52.026;8.540;2023-02-12T05:03:32;51048.38;;;-145.42;100.00
49367;BME280;35245;52.026;8.540;2023-02-12T05:06:02;51074.13;;;-145.42;100.00
49367;BME280;35245;52.026;8.540;2023-02-12T05:08:31;51024.59;;;-145.42;100.00
49367;BME280;35245;52.026;8.540;2023-02-12T05:11:03;51038.47;;;-145.42;100.00
49367;BME280;35245;52.026;8.540;2023-02-12T05:13:31;51026.56;;;-145.42;100.00
49367;BME280;35245;52.026;8.540;2023-02-12T05:15:58;51044.41;;;-145.42;100.00
49367;BME280;35245;52.026;8.540;2023-02-12T05:18:25;51040.44;;;-145.42;100.00
49367;BME280;35245;52.026;8.540;2023-02-12T05:20:56;51024.59;;;-145.42;100.00
49367;BME280;35245;52.026;8.540;2023-02-12T05:23:26;51044.41;;;-145.42;100.00
49367;BME280;35245;52.026;8.540;2023-02-12T05:25:58;51042.41;;;-145.42;100.00
49367;BME280;35245;52.026;8.540;2023-02-12T05:28:25;51066.22;;;-145.42;100.00
49367;BME280;35245;52.026;8.540;2023-02-12T05:30:53;51050.34;;;-145.42;100.00
49367;BME280;35245;52.026;8.540;2023-02-12T05:33:20;51026.56;;;-145.42;100.00
49367;BME280;35245;52.026;8.540;2023-02-12T05:35:47;51036.47;;;-145.42;100.00
49367;BME280;35245;52.026;8.540;2023-02-12T05:38:14;51046.38;;;-145.42;100.00
49367;BME280;35245;52.026;8.540;2023-02-12T05:40:42;51044.41;;;-145.42;100.00
49367;BME280;35245;52.026;8.540;2023-02-12T05:43:10;51040.44;;;-145.42;99.96
49367;BME280;35245;52.026;8.540;2023-02-12T05:45:37;51042.41;;;-145.42;99.67
49367;BME280;35245;52.026;8.540;2023-02-12T05:48:06;51040.44;;;-145.42;100.00
49367;BME280;35245;52.026;8.540;2023-02-12T05:50:33;51018.63;;;-145.42;100.00
49367;BME280;35245;52.026;8.540;2023-02-12T05:53:00;51034.50;;;-145.42;99.94
49367;BME280;35245;52.026;8.540;2023-02-12T05:55:27;51040.44;;;-145.42;100.00
49367;BME280;35245;52.026;8.540;2023-02-12T05:57:54;51054.31;;;-145.42;100.00
49367;BME280;35245;52.026;8.540;2023-02-12T06:00:23;51054.31;;;-145.42;100.00
49367;BME280;35245;52.026;8.540;2023-02-12T06:02:51;51044.41;;;-145.42;100.00
49367;BME280;35245;52.026;8.540;2023-02-12T06:05:18;51044.41;;;-145.42;100.00
49367;BME280;35245;52.026;8.540;2023-02-12T06:07:45;51044.41;;;-145.42;100.00
49367;BME280;35245;52.026;8.540;2023-02-12T06:10:12;51024.59;;;-145.42;100.00
49367;BME280;35245;52.026;8.540;2023-02-12T06:12:39;51026.56;;;-145.42;100.00
49367;BME280;35245;52.026;8.540;2023-02-12T06:15:07;51034.50;;;-145.42;100.00
49367;BME280;35245;52.026;8.540;2023-02-12T06:17:36;51010.72;;;-145.42;100.00
49367;BME280;35245;52.026;8.540;2023-02-12T06:20:04;51028.53;;;-145.42;100.00
49367;BME280;35245;52.026;8.540;2023-02-12T06:22:31;51028.53;;;-145.42;100.00
49367;BME280;35245;52.026;8.540;2023-02-12T06:24:59;51024.59;;;-145.42;100.00
49367;BME280;35245;52.026;8.540;2023-02-12T06:27:26;51040.44;;;-145.42;100.00
49367;BME280;35245;52.026;8.540;2023-02-12T06:29:53;51028.53;;;-145.42;100.00
49367;BME280;35245;52.026;8.540;2023-02-12T06:32:20;51050.34;;;-145.42;100.00
49367;BME280;35245;52.026;8.540;2023-02-12T06:34:49;51026.56;;;-145.42;100.00
49367;BME280;35245;52.026;8.540;2023-02-12T06:37:16;51044.41;;;-145.42;100.00
49367;BME280;35245;52.026;8.540;2023-02-12T06:39:43;51046.38;;;-145.42;100.00
49367;BME280;35245;52.026;8.540;2023-02-12T06:42:10;51034.50;;;-145.42;100.00
49367;BME280;35245;52.026;8.540;2023-02-12T06:44:38;51040.44;;;-145.42;100.00
49367;BME280;35245;52.026;8.540;2023-02-12T06:47:05;51024.59;;;-145.42;100.00
49367;BME280;35245;52.026;8.540;2023-02-12T06:49:32;51050.34;;;-145.42;100.00
49367;BME280;35245;52.026;8.540;2023-02-12T06:52:00;51020.63;;;-145.42;100.00
49367;BME280;35245;52.026;8.540;2023-02-12T06:54:27;51036.47;;;-145.42;100.00
49367;BME280;35245;52.026;8.540;2023-02-12T06:56:55;51028.53;;;-145.42;100.00
49367;BME280;35245;52.026;8.540;2023-02-12T06:59:22;51006.75;;;-145.42;100.00
49367;BME280;35245;52.026;8.540;2023-02-12T07:01:49;51036.47;;;-145.42;100.00
49367;BME280;35245;52.026;8.540;2023-02-12T07:04:16;51024.59;;;-145.42;100.00
49367;BME280;35245;52.026;8.540;2023-02-12T07:06:43;51034.50;;;-145.42;100.00
49367;BME280;35245;52.026;8.540;2023-02-12T07:09:12;51028.53;;;-145.42;100.00
49367;BME280;35245;52.026;8.540;2023-02-12T07:11:39;51034.50;;;-145.42;100.00
49367;BME280;35245;52.026;8.540;2023-02-12T07:14:06;51044.41;;;-145.42;100.00
49367;BME280;35245;52.026;8.540;2023-02-12T07:16:34;51058.28;;;-145.42;100.00
49367;BME280;35245;52.026;8.540;2023-02-12T07:19:01;51020.63;;;-145.42;100.00
49367;BME280;35245;52.026;8.540;2023-02-12T07:21:28;51050.34;;;-145.42;100.00
49367;BME280;35245;52.026;8.540;2023-02-12T07:23:57;51050.34;;;-145.42;100.00
49367;BME280;35245;52.026;8.540;2023-02-12T07:26:26;51024.59;;;-145.42;100.00
49367;BME280;35245;52.026;8.540;2023-02-12T07:28:53;51046.38;;;-145.42;100.00
49367;BME280;35245;52.026;8.540;2023-02-12T07:31:22;51036.47;;;-145.42;100.00
49367;BME280;35245;52.026;8.540;2023-02-12T07:33:53;51036.47;;;-145.42;100.00
49367;BME280;35245;52.026;8.540;2023-02-12T07:36:20;51050.34;;;-145.42;100.00
49367;BME280;35245;52.026;8.540;2023-02-12T07:38:48;51030.53;;;-145.42;100.00
49367;BME280;35245;52.026;8.540;2023-02-12T07:41:18;51030.53;;;-145.42;100.00
49367;BME280;35245;52.026;8.540;2023-02-12T07:43:52;51048.38;;;-145.42;100.00
49367;BME280;35245;52.026;8.540;2023-02-12T07:46:22;51036.47;;;-145.42;100.00
49367;BME280;35245;52.026;8.540;2023-02-12T07:48:55;51052.34;;;-145.42;100.00
49367;BME280;35245;52.026;8.540;2023-02-12T07:51:22;51078.09;;;-145.42;99.95
49367;BME280;35245;52.026;8.540;2023-02-12T07:53:50;51050.34;;;-145.42;100.00
49367;BME280;35245;52.026;8.540;2023-02-12T07:56:20;51048.38;;;-145.42;100.00
49367;BME280;35245;52.026;8.540;2023-02-12T07:58:51;51030.53;;;-145.42;100.00
49367;BME280;35245;52.026;8.540;2023-02-12T08:01:20;51006.75;;;-145.42;100.00
49367;BME280;35245;52.026;8.540;2023-02-12T08:03:49;51016.66;;;-145.42;100.00
49367;BME280;35245;52.026;8.540;2023-02-12T08:06:20;51042.41;;;-145.42;100.00
49367;BME280;35245;52.026;8.540;2023-02-12T08:08:49;51052.34;;;-145.42;100.00
49367;BME280;35245;52.026;8.540;2023-02-12T08:11:17;51038.47;;;-145.42;100.00
49367;BME280;35245;52.026;8.540;2023-02-12T08:13:45;51018.63;;;-145.42;100.00
49367;BME280;35245;52.026;8.540;2023-02-12T08:16:16;51054.31;;;-145.42;100.00
49367;BME280;35245;52.026;8.540;2023-02-12T08:18:44;50998.81;;;-145.42;100.00
49367;BME280;35245;52.026;8.540;2023-02-12T08:21:13;51032.50;;;-145.42;100.00
49367;BME280;35245;52.026;8.540;2023-02-12T08:23:41;51038.47;;;-145.42;100.00
49367;BME280;35245;52.026;8.540;2023-02-12T08:26:11;51016.66;;;-145.42;100.00
49367;BME280;35245;52.026;8.540;2023-02-12T08:28:40;51012.69;;;-145.42;100.00
49367;BME280;35245;52.026;8.540;2023-02-12T08:31:10;51022.59;;;-145.42;100.00
49367;BME280;35245;52.026;8.540;2023-02-12T08:33:39;51040.44;;;-145.42;100.00
49367;BME280;35245;52.026;8.540;2023-02-12T08:36:10;51010.72;;;-145.42;100.00
49367;BME280;35245;52.026;8.540;2023-02-12T08:38:38;51026.56;;;-145.42;100.00
49367;BME280;35245;52.026;8.540;2023-02-12T08:41:07;51016.66;;;-145.42;100.00
49367;BME280;35245;52.026;8.540;2023-02-12T08:43:35;51022.59;;;-145.42;100.00
49367;BME280;35245;52.026;8.540;2023-02-12T08:46:04;51026.56;;;-145.42;100.00
49367;BME280;35245;52.026;8.540;2023-02-12T08:48:32;51022.59;;;-145.42;100.00
49367;BME280;35245;52.026;8.540;2023-02-12T08:51:07;51040.44;;;-145.42;100.00
49367;BME280;35245;52.026;8.540;2023-02-12T08:53:35;51018.63;;;-145.42;100.00
49367;BME280;35245;52.026;8.540;2023-02-12T08:56:03;51026.56;;;-145.42;100.00
49367;BME280;35245;52.026;8.540;2023-02-12T08:58:30;51030.53;;;-145.42;100.00
49367;BME280;35245;52.026;8.540;2023-02-12T09:00:58;51028.53;;;-145.42;100.00
49367;BME280;35245;52.026;8.540;2023-02-12T09:03:25;51042.41;;;-145.42;100.00
49367;BME280;35245;52.026;8.540;2023-02-12T09:05:52;51046.38;;;-145.42;100.00
49367;BME280;35245;52.026;8.540;2023-02-12T09:08:21;51040.44;;;-145.42;100.00
49367;BME280;35245;52.026;8.540;2023-02-12T09:10:48;51036.47;;;-145.42;100.00
49367;BME280;35245;52.026;8.540;2023-02-12T09:13:15;51046.38;;;-145.42;100.00
49367;BME280;35245;52.026;8.540;2023-02-12T09:15:44;51052.34;;;-145.42;100.00
49367;BME280;35245;52.026;8.540;2023-02-12T09:18:13;51014.66;;;-145.42;100.00
49367;BME280;35245;52.026;8.540;2023-02-12T09:20:42;51032.50;;;-145.42;100.00
49367;BME280;35245;52.026;8.540;2023-02-12T09:23:12;51026.56;;;-145.42;100.00
49367;BME280;35245;52.026;8.540;2023-02-12T09:25:43;51068.19;;;-145.42;100.00
49367;BME280;35245;52.026;8.540;2023-02-12T09:28:12;51044.41;;;-145.42;100.00
49367;BME280;35245;52.026;8.540;2023-02-12T09:30:40;51048.38;;;-145.42;100.00
49367;BME280;35245;52.026;8.540;2023-02-12T09:33:09;51052.34;;;-145.42;100.00
49367;BME280;35245;52.026;8.540;2023-02-12T09:35:37;51042.41;;;-145.42;100.00
49367;BME280;35245;52.026;8.540;2023-02-12T09:38:06;51024.59;;;-145.42;100.00
49367;BME280;35245;52.026;8.540;2023-02-12T09:40:44;51056.28;;;-145.42;100.00
49367;BME280;35245;52.026;8.540;2023-02-12T09:43:24;51050.34;;;-145.42;100.00
49367;BME280;35245;52.026;8.540;2023-02-12T09:46:02;51026.56;;;-145.42;100.00
49367;BME280;35245;52.026;8.540;2023-02-12T09:48:47;51042.41;;;-145.42;100.00
49367;BME280;35245;52.026;8.540;2023-02-12T09:51:19;51040.44;;;-145.42;100.00
49367;BME280;35245;52.026;8.540;2023-02-12T09:53:59;51036.47;;;-145.42;100.00
49367;BME280;35245;52.026;8.540;2023-02-12T09:56:29;51040.44;;;-145.42;100.00
49367;BME280;35245;52.026;8.540;2023-02-12T09:58:59;51042.41;;;-145.42;100.00
49367;BME280;35245;52.026;8.540;2023-02-12T10:01:27;51044.41;;;-145.42;100.00
49367;BME280;35245;52.026;8.540;2023-02-12T10:03:55;51010.72;;;-145.42;99.73
49367;BME280;35245;52.026;8.540;2023-02-12T10:06:26;51044.41;;;-145.42;98.65
49367;BME280;35245;52.026;8.540;2023-02-12T10:12:02;51072.16;;;-145.42;98.04
49367;BME280;35245;52.026;8.540;2023-02-12T10:15:13;51062.25;;;-145.42;96.49
49367;BME280;35245;52.026;8.540;2023-02-12T10:17:48;51046.38;;;-145.42;98.02
49367;BME280;35245;52.026;8.540;2023-02-12T10:20:44;51097.91;;;-145.42;95.70
49367;BME280;35245;52.026;8.540;2023-02-12T10:26:19;51042.41;;;-145.42;95.87
49367;BME280;35245;52.026;8.540;2023-02-12T10:28:51;51054.31;;;-145.42;95.53
49367;BME280;35245;52.026;8.540;2023-02-12T10:31:24;51044.41;;;-145.42;94.59
49367;BME280;35245;52.026;8.540;2023-02-12T10:33:54;51056.28;;;-145.42;95.30
49367;BME280;35245;52.026;8.540;2023-02-12T10:36:36;51050.34;;;-145.42;97.52
49367;BME280;35245;52.026;8.540;2023-02-12T10:39:14;51044.41;;;-145.42;98.05
49367;BME280;35245;52.026;8.540;2023-02-12T10:41:48;51062.25;;;-145.42;96.77
49367;BME280;35245;52.026;8.540;2023-02-12T10:44:20;51066.22;;;-145.42;94.92
49367;BME280;35245;52.026;8.540;2023-02-12T10:46:47;51050.34;;;-145.42;95.97
49367;BME280;35245;52.026;8.540;2023-02-12T10:49:17;51060.25;;;-145.42;95.05
49367;BME280;35245;52.026;8.540;2023-02-12T10:52:10;51052.34;;;-145.42;94.68
49367;BME280;35245;52.026;8.540;2023-02-12T10:54:41;51036.47;;;-145.42;96.05
49367;BME280;35245;52.026;8.540;2023-02-12T10:57:19;51052.34;;;-145.42;94.71
49367;BME280;35245;52.026;8.540;2023-02-12T10:59:51;51070.16;;;-145.42;94.76
49367;BME280;35245;52.026;8.540;2023-02-12T11:02:25;51042.41;;;-145.42;95.82
49367;BME280;35245;52.026;8.540;2023-02-12T11:04:54;51058.28;;;-145.42;95.46
49367;BME280;35245;52.026;8.540;2023-02-12T11:07:23;51056.28;;;-145.42;94.84
49367;BME280;35245;52.026;8.540;2023-02-12T11:09:53;51062.25;;;-145.42;94.20
49367;BME280;35245;52.026;8.540;2023-02-12T11:12:31;51038.47;;;-145.42;96.69
49367;BME280;35245;52.026;8.540;2023-02-12T11:15:09;51058.28;;;-145.42;95.21
49367;BME280;35245;52.026;8.540;2023-02-12T11:17:43;51042.41;;;-145.42;96.50
49367;BME280;35245;52.026;8.540;2023-02-12T11:20:26;51076.13;;;-145.42;95.26
49367;BME280;35245;52.026;8.540;2023-02-12T11:22:57;51034.50;;;-145.42;97.75
49367;BME280;35245;52.026;8.540;2023-02-12T11:25:27;51038.47;;;-145.42;97.07
49367;BME280;35245;52.026;8.540;2023-02-12T11:28:13;51050.34;;;-145.42;97.90
49367;BME280;35245;52.026;8.540;2023-02-12T11:30:53;51060.25;;;-145.42;97.47
49367;BME280;35245;52.026;8.540;2023-02-12T11:33:31;51038.47;;;-145.42;98.01
49367;BME280;35245;52.026;8.540;2023-02-12T11:36:03;51036.47;;;-145.42;96.96
49367;BME280;35245;52.026;8.540;2023-02-12T11:38:35;51050.34;;;-145.42;95.31
49367;BME280;35245;52.026;8.540;2023-02-12T11:41:20;51070.16;;;-145.42;93.60
49367;BME280;35245;52.026;8.540;2023-02-12T11:43:48;51066.22;;;-145.42;94.87
49367;BME280;35245;52.026;8.540;2023-02-12T11:46:22;51058.28;;;-145.42;96.70
49367;BME280;35245;52.026;8.540;2023-02-12T11:48:51;51046.38;;;-145.42;97.06
49367;BME280;35245;52.026;8.540;2023-02-12T11:51:23;51036.47;;;-145.42;98.86
49367;BME280;35245;52.026;8.540;2023-02-12T11:53:56;51074.13;;;-145.42;97.87
49367;BME280;35245;52.026;8.540;2023-02-12T11:56:25;51050.34;;;-145.42;96.80
49367;BME280;35245;52.026;8.540;2023-02-12T11:59:17;51032.50;;;-145.42;94.15
49367;BME280;35245;52.026;8.540;2023-02-12T12:01:51;51046.38;;;-145.42;94.67
49367;BME280;35245;52.026;8.540;2023-02-12T12:04:22;51050.34;;;-145.42;93.83
49367;BME280;35245;52.026;8.540;2023-02-12T12:06:56;51050.34;;;-145.42;93.66
49367;BME280;35245;52.026;8.540;2023-02-12T12:09:31;51064.22;;;-145.42;94.42
49367;BME280;35245;52.026;8.540;2023-02-12T12:12:09;51040.44;;;-145.42;94.73
49367;BME280;35245;52.026;8.540;2023-02-12T12:14:43;51046.38;;;-145.42;95.78
49367;BME280;35245;52.026;8.540;2023-02-12T12:17:42;51046.38;;;-145.42;97.34
49367;BME280;35245;52.026;8.540;2023-02-12T12:20:34;51026.56;;;-145.42;96.79
49367;BME280;35245;52.026;8.540;2023-02-12T12:23:06;51050.34;;;-145.42;97.82
49367;BME280;35245;52.026;8.540;2023-02-12T12:25:43;51030.53;;;-145.42;97.95
49367;BME280;35245;52.026;8.540;2023-02-12T12:28:28;51052.34;;;-145.42;96.18
49367;BME280;35245;52.026;8.540;2023-02-12T12:31:07;51028.53;;;-145.42;95.41
49367;BME280;35245;52.026;8.540;2023-02-12T12:33:45;51046.38;;;-145.42;96.69
49367;BME280;35245;52.026;8.540;2023-02-12T12:36:50;51028.53;;;-145.42;96.95
49367;BME280;35245;52.026;8.540;2023-02-12T12:39:27;51032.50;;;-145.42;96.06
49367;BME280;35245;52.026;8.540;2023-02-12T12:46:02;51048.38;;;-145.42;94.22
49367;BME280;35245;52.026;8.540;2023-02-12T12:52:16;51042.41;;;-145.42;92.42
49367;BME280;35245;52.026;8.540;2023-02-12T12:55:20;51072.16;;;-145.42;92.22
49367;BME280;35245;52.026;8.540;2023-02-12T12:57:59;51054.31;;;-145.42;92.63
49367;BME280;35245;52.026;8.540;2023-02-12T13:00:44;51046.38;;;-145.42;91.25
49367;BME280;35245;52.026;8.540;2023-02-12T13:03:57;51068.19;;;-145.42;91.53
49367;BME280;35245;52.026;8.540;2023-02-12T13:06:44;51050.34;;;-145.42;92.25
49367;BME280;35245;52.026;8.540;2023-02-12T13:09:51;51040.44;;;-145.42;91.46
49367;BME280;35245;52.026;8.540;2023-02-12T13:12:38;51054.31;;;-145.42;93.06
49367;BME280;35245;52.026;8.540;2023-02-12T13:15:23;51044.41;;;-145.42;92.52
49367;BME280;35245;52.026;8.540;2023-02-12T13:18:01;51044.41;;;-145.42;94.80
49367;BME280;35245;52.026;8.540;2023-02-12T13:20:44;51020.63;;;-145.42;92.95
49367;BME280;35245;52.026;8.540;2023-02-12T13:23:15;51034.50;;;-145.42;92.01